Terminal Aerodrome Forecast
Issued by NWS

Home | Current Version | Previous Version | Text Only | Print | Product List | Glossary On
Versions: 1 2 3 4 5 6 7 8 9 10 11 12 13 14 15 16 17 18 19 20
000
FTUS44 KSJT 201100
TAFSOA
TAF
KSOA 201120Z 2012/2112 17005KT 6SM BR OVC014
      TEMPO 2014/2017 SCT020
     FM201700 16008KT P6SM SCT030
     FM201900 14007KT P6SM VCSH BKN040
     FM210200 11005KT P6SM BKN100=

USA.gov is the U.S. government's official web portal to all federal, state and local government web resources and services.